Metar Aviation Weather Data EPWR Copernicus Wrocław

2°C Temp
-7°C Dewpoint
% Humidity
Temperature
21 KM/H
13 MPH
11 KTS
50°
North East

Wind Speed
Partly Cloudy
Conditions
Pressure 1035.91 (hPa) - 30.59 (in)
Visibility 6.2 (mi) - 10 (km)

Current Conditions
EPWR
Copernicus Wrocław
Metar :EPWR 221100Z 05011KT 010V080 9999 FEW029 02/M07 Q1036
Fri 22nd February 12:00 pm

Copernicus Wrocław
  Metar Aviation API Data Provided by https://www.checkwx.com/ PHP scripts by weather34.com ©2019